createdAt,value
2023-03-23T00:01:20.679Z,2.50
2023-03-23T00:03:47.191Z,2.20
2023-03-23T00:06:18.192Z,2.47
2023-03-23T00:08:47.751Z,2.25
2023-03-23T00:11:25.230Z,2.08
2023-03-23T00:13:54.813Z,2.12
2023-03-23T00:16:21.391Z,2.20
2023-03-23T00:18:48.115Z,2.10
2023-03-23T00:21:14.778Z,1.83
2023-03-23T00:23:41.229Z,2.20
2023-03-23T00:26:07.710Z,2.22
2023-03-23T00:28:34.422Z,1.62
2023-03-23T00:31:00.828Z,1.70
2023-03-23T00:33:27.580Z,1.70
2023-03-23T00:35:54.582Z,1.87
2023-03-23T00:38:21.461Z,2.17
2023-03-23T00:40:48.397Z,1.70
2023-03-23T00:43:14.870Z,1.95
2023-03-23T00:45:41.484Z,2.00
2023-03-23T00:48:08.089Z,1.73
2023-03-23T00:50:39.060Z,1.80
2023-03-23T00:53:05.720Z,1.60
2023-03-23T00:55:32.240Z,1.83
2023-03-23T00:57:58.825Z,1.95
2023-03-23T01:00:25.260Z,1.62
2023-03-23T01:02:52.635Z,1.60
2023-03-23T01:05:19.090Z,1.80
2023-03-23T01:07:45.537Z,1.95
2023-03-23T01:10:13.722Z,1.67
2023-03-23T01:12:40.202Z,1.52
2023-03-23T01:15:07.204Z,1.45
2023-03-23T01:17:33.645Z,1.62
2023-03-23T01:20:00.063Z,1.40
2023-03-23T01:22:26.736Z,1.60
2023-03-23T01:24:53.145Z,1.40
2023-03-23T01:27:19.605Z,1.58
2023-03-23T01:29:46.028Z,1.30
2023-03-23T01:32:12.428Z,1.67
2023-03-23T01:34:38.848Z,1.45
2023-03-23T01:37:09.327Z,1.33
2023-03-23T01:39:35.748Z,1.15
2023-03-23T01:42:02.187Z,1.25
2023-03-23T01:44:28.995Z,1.58
2023-03-23T01:46:56.032Z,1.30
2023-03-23T01:49:22.516Z,1.40
2023-03-23T01:51:48.939Z,1.52
2023-03-23T01:54:15.373Z,1.30
2023-03-23T01:56:42.329Z,1.17
2023-03-23T01:59:08.818Z,1.50
2023-03-23T02:01:37.843Z,1.25
2023-03-23T02:04:04.293Z,1.65
2023-03-23T02:06:30.998Z,1.33
2023-03-23T02:08:57.408Z,1.05
2023-03-23T02:11:36.862Z,1.30
2023-03-23T02:14:03.980Z,1.50
2023-03-23T02:16:30.576Z,0.90
2023-03-23T02:18:57.273Z,1.15
2023-03-23T02:21:23.815Z,1.10
2023-03-23T02:23:51.449Z,1.20
2023-03-23T02:26:17.888Z,1.10
2023-03-23T02:28:44.388Z,1.30
2023-03-23T02:31:12.439Z,1.20
2023-03-23T02:33:38.877Z,1.10
2023-03-23T02:36:05.297Z,1.20
2023-03-23T02:38:32.130Z,1.20
2023-03-23T02:40:58.595Z,1.20
2023-03-23T02:43:25.009Z,1.17
2023-03-23T02:46:01.730Z,1.27
2023-03-23T02:48:28.136Z,1.50
2023-03-23T02:50:54.567Z,1.20
2023-03-23T02:53:21.385Z,1.10
2023-03-23T02:55:47.861Z,1.77
2023-03-23T02:58:14.331Z,1.25
2023-03-23T03:00:40.857Z,1.20
2023-03-23T03:03:07.744Z,1.45
2023-03-23T03:05:34.638Z,1.33
2023-03-23T03:08:01.052Z,1.35
2023-03-23T03:10:27.856Z,1.10
2023-03-23T03:12:54.422Z,1.15
2023-03-23T03:15:20.901Z,1.25
2023-03-23T03:17:47.490Z,1.15
2023-03-23T03:20:15.218Z,1.40
2023-03-23T03:22:45.124Z,1.17
2023-03-23T03:25:18.097Z,1.50
2023-03-23T03:27:45.350Z,1.30
2023-03-23T03:30:13.180Z,1.50
2023-03-23T03:32:40.177Z,0.98
2023-03-23T03:35:07.005Z,1.20
2023-03-23T03:37:33.595Z,1.20
2023-03-23T03:40:00.575Z,1.05
2023-03-23T03:42:27.282Z,1.30
2023-03-23T03:44:53.794Z,1.00
2023-03-23T03:47:20.238Z,1.50
2023-03-23T03:49:46.816Z,1.30
2023-03-23T03:52:13.434Z,1.60
2023-03-23T03:54:41.693Z,1.80
2023-03-23T03:57:09.276Z,1.20
2023-03-23T03:59:35.716Z,1.45
2023-03-23T04:02:02.438Z,1.40
2023-03-23T04:04:29.713Z,1.50
2023-03-23T04:06:56.115Z,1.62
2023-03-23T04:09:22.890Z,1.45
2023-03-23T04:11:49.675Z,1.45
2023-03-23T04:14:16.797Z,1.52
2023-03-23T04:16:54.348Z,1.60
2023-03-23T04:19:21.051Z,2.00
2023-03-23T04:21:50.168Z,1.60
2023-03-23T04:24:23.337Z,1.45
2023-03-23T04:27:02.983Z,1.50
2023-03-23T04:29:29.389Z,1.58
2023-03-23T04:31:57.368Z,1.60
2023-03-23T04:34:24.434Z,1.40
2023-03-23T04:36:56.046Z,1.50
2023-03-23T04:39:25.305Z,1.92
2023-03-23T04:41:52.725Z,1.62
2023-03-23T04:44:22.513Z,1.85
2023-03-23T04:46:50.782Z,1.80
2023-03-23T04:49:22.040Z,1.60
2023-03-23T04:51:48.634Z,1.65
2023-03-23T04:54:15.594Z,1.58
2023-03-23T04:56:42.477Z,1.73
2023-03-23T04:59:08.900Z,1.52
2023-03-23T05:01:38.196Z,1.92
2023-03-23T05:04:07.013Z,2.10
2023-03-23T05:06:33.514Z,1.90
2023-03-23T05:08:59.977Z,1.90
2023-03-23T05:11:26.593Z,2.37
2023-03-23T05:13:53.029Z,1.90
2023-03-23T05:16:19.598Z,1.98
2023-03-23T05:18:47.589Z,2.10
2023-03-23T05:21:15.389Z,1.75
2023-03-23T05:23:42.121Z,2.40
2023-03-23T05:26:08.620Z,2.17
2023-03-23T05:28:35.086Z,1.73
2023-03-23T05:31:01.501Z,2.37
2023-03-23T05:33:27.934Z,1.98
2023-03-23T05:35:54.382Z,2.10
2023-03-23T05:38:20.853Z,2.05
2023-03-23T05:40:47.326Z,2.08
2023-03-23T05:43:13.745Z,2.22
2023-03-23T05:45:40.714Z,1.87
2023-03-23T05:48:07.330Z,2.00
2023-03-23T05:50:34.270Z,1.77
2023-03-23T05:53:00.723Z,2.12
2023-03-23T05:55:27.162Z,1.90
2023-03-23T05:57:53.593Z,2.08
2023-03-23T06:00:24.582Z,1.80
2023-03-23T06:02:52.094Z,2.10
2023-03-23T06:05:18.815Z,1.77
2023-03-23T06:07:45.382Z,1.90
2023-03-23T06:10:12.139Z,2.00
2023-03-23T06:12:38.587Z,2.17
2023-03-23T06:15:05.297Z,2.00
2023-03-23T06:17:31.802Z,2.00
2023-03-23T06:19:58.937Z,1.77
2023-03-23T06:22:26.168Z,1.75
2023-03-23T06:24:52.638Z,2.10
2023-03-23T06:27:19.102Z,1.73
2023-03-23T06:29:45.530Z,1.90
2023-03-23T06:32:11.968Z,1.90
2023-03-23T06:34:38.783Z,2.10
2023-03-23T06:37:06.607Z,2.30
2023-03-23T06:39:33.147Z,1.85
2023-03-23T06:42:01.021Z,2.10
2023-03-23T06:44:27.480Z,1.73
2023-03-23T06:46:53.885Z,1.40
2023-03-23T06:49:21.136Z,1.40
2023-03-23T06:51:47.614Z,1.37
2023-03-23T06:54:14.047Z,1.05
2023-03-23T06:56:40.896Z,1.23
2023-03-23T06:59:08.414Z,0.98
2023-03-23T07:01:34.886Z,1.25
2023-03-23T07:04:01.486Z,1.40
2023-03-23T07:06:28.481Z,1.30
2023-03-23T07:08:54.911Z,1.10
2023-03-23T07:11:21.350Z,1.15
2023-03-23T07:13:47.951Z,1.20
2023-03-23T07:16:14.368Z,1.20
2023-03-23T07:18:40.970Z,1.20
2023-03-23T07:21:07.701Z,1.55
2023-03-23T07:23:34.180Z,1.30
2023-03-23T07:26:00.668Z,1.45
2023-03-23T07:28:27.556Z,1.60
2023-03-23T07:30:53.994Z,1.33
2023-03-23T07:33:20.538Z,1.20
2023-03-23T07:35:47.005Z,1.35
2023-03-23T07:38:13.486Z,1.20
2023-03-23T07:40:40.131Z,1.33
2023-03-23T07:43:06.953Z,1.52
2023-03-23T07:45:33.407Z,1.23
2023-03-23T07:48:00.781Z,1.05
2023-03-23T07:50:27.449Z,1.48
2023-03-23T07:52:53.868Z,1.20
2023-03-23T07:55:20.305Z,1.60
2023-03-23T07:57:46.732Z,1.30
2023-03-23T08:00:20.251Z,1.35
2023-03-23T08:02:46.996Z,1.00
2023-03-23T08:05:14.585Z,1.10
2023-03-23T08:07:41.546Z,1.75
2023-03-23T08:10:11.261Z,1.40
2023-03-23T08:12:37.914Z,1.23
2023-03-23T08:15:04.517Z,1.30
2023-03-23T08:17:30.952Z,1.40
2023-03-23T08:19:57.362Z,1.20
2023-03-23T08:22:23.802Z,1.40
2023-03-23T08:24:50.323Z,1.10
2023-03-23T08:27:16.744Z,1.27
2023-03-23T08:29:43.170Z,1.20
2023-03-23T08:32:09.593Z,1.10
2023-03-23T08:34:36.033Z,1.45
2023-03-23T08:37:02.892Z,1.10
2023-03-23T08:39:31.280Z,1.30
2023-03-23T08:41:57.746Z,1.20
2023-03-23T08:44:24.704Z,1.17
2023-03-23T08:46:55.782Z,1.33
2023-03-23T08:49:22.829Z,1.50
2023-03-23T08:51:49.741Z,1.33
2023-03-23T08:54:16.172Z,1.10
2023-03-23T08:56:43.335Z,1.50
2023-03-23T08:59:10.328Z,1.48
2023-03-23T09:01:37.134Z,1.85
2023-03-23T09:04:03.540Z,1.20
2023-03-23T09:06:30.001Z,1.70
2023-03-23T09:08:57.002Z,1.50
2023-03-23T09:11:23.448Z,1.35
2023-03-23T09:13:49.937Z,1.40
2023-03-23T09:16:16.341Z,1.25
2023-03-23T09:18:42.774Z,1.60
2023-03-23T09:21:19.076Z,1.30
2023-03-23T09:23:46.695Z,1.37
2023-03-23T09:26:13.126Z,1.23
2023-03-23T09:28:39.780Z,1.80
2023-03-23T09:31:06.190Z,1.20
2023-03-23T09:33:36.028Z,1.35
2023-03-23T09:36:15.307Z,1.20
2023-03-23T09:38:42.684Z,1.50
2023-03-23T09:41:09.120Z,1.45
2023-03-23T09:43:35.571Z,1.45
2023-03-23T09:46:02.113Z,1.55
2023-03-23T09:48:28.876Z,1.65
2023-03-23T09:50:55.635Z,1.90
2023-03-23T09:53:22.088Z,1.52
2023-03-23T09:55:50.056Z,1.40
2023-03-23T09:58:17.571Z,1.33
2023-03-23T10:00:44.066Z,1.62
2023-03-23T10:03:10.680Z,1.40
2023-03-23T10:05:37.180Z,1.20
2023-03-23T10:08:03.620Z,1.60
2023-03-23T10:10:30.024Z,1.73
2023-03-23T10:12:59.521Z,1.64
2023-03-23T10:15:25.957Z,1.40
2023-03-23T10:17:52.751Z,1.30
2023-03-23T10:20:20.384Z,1.42
2023-03-23T10:22:46.794Z,1.33
2023-03-23T10:25:14.037Z,1.30
2023-03-23T10:27:40.475Z,1.05
2023-03-23T10:30:06.913Z,1.12
2023-03-23T10:32:33.332Z,1.10
2023-03-23T10:34:59.739Z,1.20
2023-03-23T10:37:26.183Z,1.25
2023-03-23T10:39:52.935Z,1.10
2023-03-23T10:42:19.366Z,1.30
2023-03-23T10:44:46.858Z,1.30
2023-03-23T10:47:14.493Z,1.15
2023-03-23T10:49:41.202Z,1.70
2023-03-23T10:52:07.645Z,1.45
2023-03-23T10:54:34.709Z,1.08
2023-03-23T10:57:03.448Z,1.20
2023-03-23T10:59:30.466Z,1.10
2023-03-23T11:01:57.210Z,1.00
2023-03-23T11:04:24.236Z,1.17
2023-03-23T11:06:50.845Z,1.40
2023-03-23T11:09:18.688Z,1.25
2023-03-23T11:11:45.136Z,1.23
2023-03-23T11:14:11.688Z,1.25
2023-03-23T11:16:38.443Z,1.20
2023-03-23T11:19:04.848Z,1.30
2023-03-23T11:21:31.277Z,1.27
2023-03-23T11:24:09.359Z,0.98
2023-03-23T11:26:36.544Z,1.23
2023-03-23T11:29:02.971Z,0.90
2023-03-23T11:31:29.395Z,1.10
2023-03-23T11:34:05.861Z,1.30
2023-03-23T11:36:32.820Z,1.40
2023-03-23T11:38:59.911Z,1.00
2023-03-23T11:41:26.938Z,1.30
2023-03-23T11:43:53.387Z,1.10
2023-03-23T11:46:19.805Z,0.90
2023-03-23T11:48:46.871Z,1.33
2023-03-23T11:51:13.368Z,1.10
2023-03-23T11:53:40.128Z,1.17
2023-03-23T11:56:06.572Z,1.10
2023-03-23T11:58:34.174Z,1.10
2023-03-23T12:01:00.602Z,1.05
2023-03-23T12:03:27.923Z,1.00
2023-03-23T12:05:54.420Z,1.30
2023-03-23T12:13:21.060Z,1.02
2023-03-23T12:15:47.688Z,1.00
2023-03-23T12:18:14.378Z,1.20
2023-03-23T12:20:42.916Z,1.02
2023-03-23T12:23:09.770Z,0.90
2023-03-23T12:25:36.286Z,0.75
2023-03-23T12:28:02.781Z,1.02
2023-03-23T12:30:29.250Z,1.10
2023-03-23T12:32:56.020Z,0.98
2023-03-23T12:35:24.270Z,1.00
2023-03-23T12:37:51.131Z,1.10
2023-03-23T12:40:18.658Z,0.98
2023-03-23T12:42:45.728Z,1.05
2023-03-23T12:45:13.496Z,1.05
2023-03-23T12:47:39.950Z,0.90
2023-03-23T12:50:06.409Z,1.15
2023-03-23T12:52:33.116Z,1.10
2023-03-23T12:54:59.548Z,0.80
2023-03-23T12:57:28.533Z,0.98
2023-03-23T12:59:54.991Z,1.20
2023-03-23T13:02:21.508Z,1.12
2023-03-23T13:04:49.647Z,1.12
2023-03-23T13:07:17.270Z,1.05
2023-03-23T13:09:43.861Z,1.25
2023-03-23T13:12:10.441Z,1.20
2023-03-23T13:14:37.069Z,1.05
2023-03-23T13:17:04.072Z,1.15
2023-03-23T13:19:30.603Z,1.02
2023-03-23T13:21:57.780Z,1.20
2023-03-23T13:24:24.212Z,1.10
2023-03-23T13:26:50.654Z,1.10
2023-03-23T13:29:19.469Z,1.40
2023-03-23T13:31:45.872Z,1.45
2023-03-23T13:34:13.694Z,1.20
2023-03-23T13:36:40.259Z,1.08
2023-03-23T13:39:08.852Z,1.60
2023-03-23T13:41:35.735Z,1.27
2023-03-23T13:44:02.281Z,1.55
2023-03-23T13:46:29.031Z,1.40
2023-03-23T13:48:55.840Z,1.62
2023-03-23T13:51:24.644Z,1.40
2023-03-23T13:53:52.782Z,1.10
2023-03-23T13:56:20.876Z,1.17
2023-03-23T13:58:48.705Z,1.00
2023-03-23T14:01:17.487Z,1.30
2023-03-23T14:03:44.837Z,1.20
2023-03-23T14:06:11.381Z,1.40
2023-03-23T14:08:37.820Z,1.10
2023-03-23T14:11:04.799Z,1.17
2023-03-23T14:13:31.809Z,1.20
2023-03-23T14:15:58.310Z,1.33
2023-03-23T14:18:24.742Z,0.93
2023-03-23T14:20:51.449Z,1.10
2023-03-23T14:23:18.884Z,1.40
2023-03-23T14:25:46.702Z,1.00
2023-03-23T14:28:13.539Z,0.98
2023-03-23T14:30:39.949Z,1.10
2023-03-23T14:33:06.782Z,1.20
2023-03-23T14:35:33.257Z,1.40
2023-03-23T14:37:59.681Z,1.20
2023-03-23T14:40:26.320Z,1.00
2023-03-23T14:42:55.477Z,1.30
2023-03-23T14:45:21.998Z,1.10
2023-03-23T14:47:48.480Z,1.17
2023-03-23T14:50:16.621Z,1.20
2023-03-23T14:52:43.147Z,0.90
2023-03-23T14:55:09.570Z,1.02
2023-03-23T14:57:36.176Z,0.82
2023-03-23T15:00:02.789Z,1.10
2023-03-23T15:02:29.439Z,1.20
2023-03-23T15:04:56.080Z,1.33
2023-03-23T15:07:22.525Z,1.27
2023-03-23T15:09:48.940Z,0.90
2023-03-23T15:12:15.364Z,1.30
2023-03-23T15:14:41.773Z,1.20
2023-03-23T15:17:08.279Z,1.45
2023-03-23T15:19:34.792Z,1.33
2023-03-23T15:22:01.744Z,1.00
2023-03-23T15:24:28.227Z,1.02
2023-03-23T15:26:54.708Z,1.23
2023-03-23T15:29:26.585Z,1.20
2023-03-23T15:31:53.284Z,1.10
2023-03-23T15:34:19.740Z,1.10
2023-03-23T15:36:46.329Z,1.20
2023-03-23T15:39:12.795Z,0.88
2023-03-23T15:41:39.212Z,1.20
2023-03-23T15:44:05.768Z,1.00
2023-03-23T15:46:32.221Z,1.00
2023-03-23T15:48:58.646Z,0.77
2023-03-23T15:51:25.125Z,1.02
2023-03-23T15:53:51.541Z,1.10
2023-03-23T15:56:18.191Z,0.90
2023-03-23T15:58:45.333Z,0.80
2023-03-23T16:01:11.867Z,0.90
2023-03-23T16:03:38.457Z,0.73
2023-03-23T16:06:04.899Z,1.10
2023-03-23T16:08:31.352Z,0.93
2023-03-23T16:10:57.904Z,0.70
2023-03-23T16:13:24.488Z,0.80
2023-03-23T16:15:51.810Z,0.77
2023-03-23T16:18:18.264Z,0.77
2023-03-23T16:20:44.712Z,0.60
2023-03-23T16:23:11.163Z,0.93
2023-03-23T16:25:39.044Z,0.60
2023-03-23T16:28:05.495Z,0.68
2023-03-23T16:30:31.935Z,0.70
2023-03-23T16:32:58.438Z,0.88
2023-03-23T16:35:24.997Z,0.80
2023-03-23T16:37:51.716Z,0.90
2023-03-23T16:40:35.052Z,1.00
2023-03-23T16:43:01.516Z,1.20
2023-03-23T16:45:35.081Z,0.90
2023-03-23T16:48:01.874Z,0.70
2023-03-23T16:50:28.340Z,1.20
2023-03-23T16:52:54.802Z,0.95
2023-03-23T16:55:21.836Z,0.80
2023-03-23T16:57:48.290Z,0.90
2023-03-23T17:00:15.649Z,0.95
2023-03-23T17:02:42.209Z,1.00
2023-03-23T17:05:09.137Z,1.02
2023-03-23T17:07:35.567Z,0.70
2023-03-23T17:10:02.064Z,0.60
2023-03-23T17:12:32.184Z,0.80
2023-03-23T17:14:58.668Z,0.65
2023-03-23T17:17:25.189Z,0.80
2023-03-23T17:19:51.968Z,0.80
2023-03-23T17:22:18.457Z,1.02
2023-03-23T17:24:46.041Z,0.90
2023-03-23T17:27:12.742Z,0.90
2023-03-23T17:29:39.179Z,0.73
2023-03-23T17:32:05.842Z,0.90
2023-03-23T17:34:32.311Z,0.80
2023-03-23T17:36:58.819Z,0.98
2023-03-23T17:39:25.688Z,1.20
2023-03-23T17:41:52.147Z,1.10
2023-03-23T17:44:18.761Z,0.93
2023-03-23T17:46:45.182Z,0.82
2023-03-23T17:49:11.621Z,1.02
2023-03-23T17:51:38.069Z,1.37
2023-03-23T17:54:04.487Z,1.05
2023-03-23T17:56:31.012Z,0.90
2023-03-23T17:58:57.516Z,1.20
2023-03-23T18:01:23.987Z,1.30
2023-03-23T18:03:50.446Z,1.10
2023-03-23T18:06:16.902Z,1.35
2023-03-23T18:08:43.474Z,1.65
2023-03-23T18:11:09.937Z,2.87
2023-03-23T18:13:36.605Z,1.90
2023-03-23T18:16:04.017Z,1.40
2023-03-23T18:18:30.734Z,1.30
2023-03-23T18:20:57.143Z,1.42
2023-03-23T18:23:23.574Z,1.50
2023-03-23T18:25:49.980Z,1.35
2023-03-23T18:28:17.467Z,1.40
2023-03-23T18:30:49.277Z,1.48
2023-03-23T18:33:16.213Z,1.45
2023-03-23T18:35:43.538Z,1.80
2023-03-23T18:38:10.308Z,1.58
2023-03-23T18:40:36.727Z,1.40
2023-03-23T18:43:03.356Z,1.60
2023-03-23T18:45:33.853Z,1.95
2023-03-23T18:48:00.406Z,1.52
2023-03-23T18:50:27.031Z,2.08
2023-03-23T18:52:53.462Z,2.00
2023-03-23T18:55:20.978Z,1.42
2023-03-23T18:57:49.661Z,1.50
2023-03-23T19:00:16.075Z,1.60
2023-03-23T19:02:42.548Z,1.50
2023-03-23T19:05:09.274Z,1.62
2023-03-23T19:07:35.799Z,1.60
2023-03-23T19:10:02.247Z,1.50
2023-03-23T19:12:28.661Z,1.50
2023-03-23T19:14:55.117Z,1.67
2023-03-23T19:17:21.553Z,1.80
2023-03-23T19:19:48.849Z,2.37
2023-03-23T19:22:15.364Z,2.00
2023-03-23T19:24:41.789Z,1.75
2023-03-23T19:27:08.626Z,1.67
2023-03-23T19:29:36.026Z,1.67
2023-03-23T19:32:03.088Z,1.80
2023-03-23T19:34:30.832Z,2.22
2023-03-23T19:37:05.338Z,2.15
2023-03-23T19:39:34.286Z,2.30
2023-03-23T19:42:01.117Z,2.28
2023-03-23T19:44:28.883Z,1.80
2023-03-23T19:46:56.290Z,2.10
2023-03-23T19:49:22.879Z,2.20
2023-03-23T19:51:49.362Z,2.62
2023-03-23T19:54:15.804Z,2.50
2023-03-23T19:56:43.517Z,2.10
2023-03-23T19:59:10.740Z,2.55
2023-03-23T20:01:37.425Z,2.85
2023-03-23T20:04:05.561Z,2.80
2023-03-23T20:06:33.118Z,2.65
2023-03-23T20:09:00.613Z,2.53
2023-03-23T20:11:27.732Z,2.78
2023-03-23T20:13:55.173Z,3.15
2023-03-23T20:16:21.984Z,3.10
2023-03-23T20:18:50.002Z,2.80
2023-03-23T20:21:20.279Z,2.95
2023-03-23T20:23:46.892Z,3.10
2023-03-23T20:26:13.345Z,3.30
2023-03-23T20:28:40.692Z,3.25
2023-03-23T20:31:19.955Z,3.78
2023-03-23T20:34:00.553Z,5.80
2023-03-23T20:36:29.986Z,9.52
2023-03-23T20:38:57.627Z,6.37
2023-03-23T20:41:24.510Z,6.70
2023-03-23T20:43:51.092Z,7.10
2023-03-23T20:46:21.115Z,8.98
2023-03-23T20:48:49.593Z,6.80
2023-03-23T20:51:16.027Z,7.30
2023-03-23T20:53:42.567Z,6.10
2023-03-23T20:56:09.097Z,5.35
2023-03-23T20:58:35.524Z,4.85
2023-03-23T21:01:03.136Z,4.72
2023-03-23T21:03:29.663Z,4.45
2023-03-23T21:05:56.748Z,4.50
2023-03-23T21:08:23.199Z,4.40
2023-03-23T21:10:49.758Z,3.60
2023-03-23T21:13:16.177Z,3.40
2023-03-23T21:15:42.758Z,3.55
2023-03-23T21:18:09.496Z,3.50
2023-03-23T21:20:36.127Z,3.50
2023-03-23T21:23:02.577Z,3.85
2023-03-23T21:25:34.171Z,3.85
2023-03-23T21:28:01.745Z,3.35
2023-03-23T21:30:28.178Z,3.70
2023-03-23T21:32:54.658Z,3.00
2023-03-23T21:35:21.413Z,2.85
2023-03-23T21:37:48.852Z,2.80
2023-03-23T21:40:16.948Z,2.67
2023-03-23T21:42:43.430Z,2.50
2023-03-23T21:45:10.191Z,2.30
2023-03-23T21:47:36.661Z,2.12
2023-03-23T21:50:04.503Z,2.30
2023-03-23T21:52:31.296Z,2.20
2023-03-23T21:54:59.613Z,1.87
2023-03-23T21:57:26.857Z,1.73
2023-03-23T21:59:53.298Z,1.83
2023-03-23T22:02:19.740Z,2.00
2023-03-23T22:04:46.142Z,1.75
2023-03-23T22:07:12.909Z,1.75
2023-03-23T22:09:41.132Z,2.40
2023-03-23T22:12:07.610Z,1.77
2023-03-23T22:14:34.061Z,1.75
2023-03-23T22:17:00.851Z,2.03
2023-03-23T22:19:27.283Z,1.92
2023-03-23T22:21:53.698Z,1.60
2023-03-23T22:24:20.185Z,1.58
2023-03-23T22:26:46.654Z,1.70
2023-03-23T22:29:13.108Z,1.80
2023-03-23T22:31:40.031Z,1.83
2023-03-23T22:34:06.494Z,1.90
2023-03-23T22:36:33.468Z,1.80
2023-03-23T22:38:59.924Z,1.60
2023-03-23T22:41:26.406Z,1.98
2023-03-23T22:43:52.822Z,1.55
2023-03-23T22:46:19.240Z,1.92
2023-03-23T22:48:45.645Z,1.90
2023-03-23T22:51:12.132Z,2.00
2023-03-23T22:53:38.621Z,1.75
2023-03-23T22:56:05.116Z,2.05
2023-03-23T22:58:31.592Z,2.17
2023-03-23T23:00:58.104Z,1.80
2023-03-23T23:03:24.567Z,2.15
2023-03-23T23:05:50.974Z,1.87
2023-03-23T23:08:18.212Z,1.65
2023-03-23T23:10:44.909Z,2.12
2023-03-23T23:13:11.444Z,1.90
2023-03-23T23:15:38.036Z,2.03
2023-03-23T23:18:05.094Z,2.10
2023-03-23T23:20:31.955Z,2.00
2023-03-23T23:22:58.398Z,1.87
2023-03-23T23:25:24.837Z,1.77
2023-03-23T23:27:51.465Z,1.92
2023-03-23T23:30:17.931Z,2.30
2023-03-23T23:32:44.805Z,2.12
2023-03-23T23:35:11.262Z,2.00
2023-03-23T23:37:38.036Z,1.65
2023-03-23T23:40:07.859Z,1.90
2023-03-23T23:42:34.280Z,2.40
2023-03-23T23:45:00.862Z,2.12
2023-03-23T23:47:27.368Z,2.00
2023-03-23T23:49:53.863Z,2.17
2023-03-23T23:52:20.295Z,2.40
2023-03-23T23:54:48.381Z,2.00
2023-03-23T23:57:15.005Z,2.03
2023-03-23T23:59:41.492Z,2.15
